Time;durP1;ratioP1;P1;durP2;ratioP2;P2;SDS_P1;SDS_P2;PMS_P1;PMS_P2;Temp;Humidity;BMP_temperature;BMP_pressure;BME280_temperature;BME280_humidity;BME280_pressure;Samples;Min_cycle;Max_cycle;Signal;HPM_P1;HPM_P2
2021/04/20 00:00:16;;;;;;;11.40;3.90;;;11.80;83.60;;;;;;5071203;28;20124;-73
2021/04/20 00:02:43;;;;;;;9.40;4.32;;;11.80;83.60;;;;;;5073422;28;20029;-73
2021/04/20 00:05:13;;;;;;;12.52;4.75;;;11.80;83.60;;;;;;5063414;28;20106;-73
2021/04/20 00:07:38;;;;;;;9.65;4.22;;;11.80;83.80;;;;;;5075052;28;20033;-73
2021/04/20 00:10:07;;;;;;;9.65;4.97;;;11.80;83.90;;;;;;5071176;28;20025;-70
2021/04/20 00:12:33;;;;;;;14.90;5.65;;;11.80;84.00;;;;;;5052915;28;20033;-69
2021/04/20 00:14:58;;;;;;;10.25;4.88;;;11.80;84.00;;;;;;5065951;28;20040;-70
2021/04/20 00:17:24;;;;;;;10.10;5.13;;;11.80;84.20;;;;;;5073060;28;20036;-69
2021/04/20 00:19:49;;;;;;;8.48;4.78;;;11.70;84.30;;;;;;5071564;28;20486;-69
2021/04/20 00:22:15;;;;;;;8.35;3.92;;;11.70;84.50;;;;;;5072988;28;20039;-69
2021/04/20 00:24:40;;;;;;;10.85;4.10;;;11.60;84.60;;;;;;5076590;28;20511;-69
2021/04/20 00:27:06;;;;;;;11.55;4.13;;;11.60;84.90;;;;;;5093167;28;20020;-69
2021/04/20 00:29:31;;;;;;;13.63;4.38;;;11.60;85.10;;;;;;5079988;28;20362;-69
2021/04/20 00:31:57;;;;;;;14.25;4.30;;;11.50;85.40;;;;;;5054581;28;20028;-69
2021/04/20 00:34:22;;;;;;;12.30;3.90;;;11.50;85.40;;;;;;5065675;28;20028;-69
2021/04/20 00:36:48;;;;;;;8.02;4.45;;;11.40;85.80;;;;;;5072320;28;20115;-69
2021/04/20 00:39:13;;;;;;;9.50;4.55;;;11.40;85.90;;;;;;5049728;28;20025;-69
2021/04/20 00:41:39;;;;;;;7.68;3.58;;;11.40;86.00;;;;;;5074725;28;20029;-69
2021/04/20 00:44:05;;;;;;;10.77;4.10;;;11.30;86.20;;;;;;5070638;28;20028;-69
2021/04/20 00:46:30;;;;;;;11.95;3.65;;;11.30;86.40;;;;;;5092786;28;20027;-72
2021/04/20 00:48:56;;;;;;;14.32;4.38;;;11.20;86.50;;;;;;5082765;28;20021;-71
2021/04/20 00:51:22;;;;;;;8.95;4.18;;;11.20;86.60;;;;;;5071221;28;20087;-71
2021/04/20 00:53:47;;;;;;;6.95;4.10;;;11.10;87.20;;;;;;5072678;28;20476;-71
2021/04/20 00:56:18;;;;;;;9.52;4.50;;;11.10;87.40;;;;;;5072966;28;20116;-71
2021/04/20 00:58:43;;;;;;;8.60;4.05;;;11.10;88.00;;;;;;5072208;28;20049;-70
2021/04/20 01:01:09;;;;;;;12.43;4.43;;;11.10;87.80;;;;;;5085181;28;20028;-71
2021/04/20 01:03:35;;;;;;;14.52;4.60;;;11.10;88.00;;;;;;5087699;28;20052;-72
2021/04/20 01:06:02;;;;;;;9.27;4.35;;;11.10;88.00;;;;;;5089522;28;20035;-72
2021/04/20 01:08:31;;;;;;;10.68;4.95;;;11.00;88.40;;;;;;5071692;28;20051;-70
2021/04/20 01:11:09;;;;;;;12.50;4.25;;;11.00;88.40;;;;;;5086979;28;20047;-70
2021/04/20 01:13:35;;;;;;;12.93;5.15;;;11.00;88.40;;;;;;5053419;28;20021;-70
2021/04/20 01:16:01;;;;;;;14.25;4.28;;;11.00;88.60;;;;;;5068787;28;20029;-71
2021/04/20 01:18:36;;;;;;;11.07;4.32;;;11.00;88.60;;;;;;5071466;28;20029;-71
2021/04/20 01:21:06;;;;;;;9.82;4.03;;;11.00;88.70;;;;;;5084963;28;20050;-72
2021/04/20 01:23:53;;;;;;;12.98;4.32;;;11.00;88.70;;;;;;5081390;28;20032;-71
2021/04/20 01:26:22;;;;;;;12.13;4.30;;;11.00;88.80;;;;;;5070386;28;20059;-71
2021/04/20 01:28:48;;;;;;;11.30;4.68;;;11.00;88.80;;;;;;5072183;28;20024;-71
2021/04/20 01:31:15;;;;;;;7.90;4.10;;;10.90;88.80;;;;;;5053378;28;20070;-70
2021/04/20 01:33:42;;;;;;;11.52;4.43;;;10.90;89.00;;;;;;5071630;28;20031;-71
2021/04/20 01:36:13;;;;;;;9.15;4.38;;;10.90;89.00;;;;;;5070245;28;20094;-71
2021/04/20 01:38:47;;;;;;;13.32;4.60;;;10.90;89.20;;;;;;5071670;28;20029;-72
2021/04/20 01:41:14;;;;;;;10.23;4.47;;;10.80;89.20;;;;;;5069622;28;20044;-71
2021/04/20 01:43:40;;;;;;;10.27;4.65;;;10.90;89.30;;;;;;5071923;28;20029;-71
2021/04/20 01:46:06;;;;;;;10.45;5.07;;;10.80;89.40;;;;;;5069937;28;20085;-71
2021/04/20 01:48:33;;;;;;;7.82;4.10;;;10.90;89.60;;;;;;5053336;28;20484;-72
2021/04/20 01:50:59;;;;;;;7.05;4.30;;;10.80;89.70;;;;;;5066799;28;20025;-70
2021/04/20 01:53:25;;;;;;;9.60;4.75;;;10.80;89.70;;;;;;5070579;28;20507;-70
2021/04/20 01:55:59;;;;;;;11.77;4.95;;;10.80;89.80;;;;;;5069823;28;20028;-70
2021/04/20 01:58:27;;;;;;;12.90;4.50;;;10.90;90.00;;;;;;5070737;28;22267;-70
2021/04/20 02:00:54;;;;;;;13.27;4.88;;;10.80;90.10;;;;;;5064116;28;20102;-69
2021/04/20 02:03:21;;;;;;;9.75;4.60;;;10.80;90.10;;;;;;5070135;28;20111;-69
2021/04/20 02:05:47;;;;;;;9.98;4.45;;;10.70;90.10;;;;;;5063982;28;20490;-69
2021/04/20 02:08:12;;;;;;;12.07;4.50;;;10.70;90.30;;;;;;5071535;28;20056;-70
2021/04/20 02:10:38;;;;;;;7.80;4.35;;;10.70;90.30;;;;;;5068799;28;20024;-70
2021/04/20 02:13:04;;;;;;;10.27;4.45;;;10.70;90.30;;;;;;5069659;28;20041;-69
2021/04/20 02:15:30;;;;;;;9.05;4.63;;;10.70;90.30;;;;;;5069952;28;20024;-70
2021/04/20 02:17:56;;;;;;;9.85;4.68;;;10.60;90.40;;;;;;5070795;28;20033;-70
2021/04/20 02:20:23;;;;;;;9.23;4.97;;;10.60;90.40;;;;;;5071324;28;20481;-70
2021/04/20 02:22:49;;;;;;;13.52;5.10;;;10.60;90.50;;;;;;5088531;28;20043;-70
2021/04/20 02:25:17;;;;;;;7.93;4.72;;;10.60;90.50;;;;;;5070128;28;20028;-70
2021/04/20 02:27:45;;;;;;;7.93;4.10;;;10.60;90.60;;;;;;5053119;28;20021;-70
2021/04/20 02:30:13;;;;;;;7.82;4.05;;;10.60;90.70;;;;;;5076997;28;20028;-70
2021/04/20 02:32:40;;;;;;;10.10;5.07;;;10.50;90.70;;;;;;5035056;28;20163;-71
2021/04/20 02:35:08;;;;;;;11.10;4.80;;;10.50;90.70;;;;;;5034345;28;20037;-70
2021/04/20 02:37:38;;;;;;;12.18;5.53;;;10.50;90.80;;;;;;5089765;28;20028;-70
2021/04/20 02:40:17;;;;;;;9.63;5.00;;;10.50;90.90;;;;;;5070445;28;20039;-70
2021/04/20 02:42:43;;;;;;;9.82;4.70;;;10.50;90.90;;;;;;5068896;28;20066;-70
2021/04/20 02:45:09;;;;;;;10.57;4.70;;;10.40;90.90;;;;;;5069583;28;20032;-71
2021/04/20 02:47:36;;;;;;;11.75;5.05;;;10.40;91.00;;;;;;5070186;28;20718;-70
2021/04/20 02:50:11;;;;;;;11.48;5.28;;;10.40;91.10;;;;;;5080041;28;20077;-71
2021/04/20 02:52:37;;;;;;;11.20;4.38;;;10.40;91.20;;;;;;5072265;28;20040;-71
2021/04/20 02:55:09;;;;;;;13.65;5.80;;;10.40;91.20;;;;;;5069834;28;20029;-70
2021/04/20 02:57:36;;;;;;;12.02;5.53;;;10.40;91.20;;;;;;5050635;28;20033;-70
2021/04/20 03:00:10;;;;;;;14.15;5.82;;;10.30;91.30;;;;;;5050442;28;20524;-70
2021/04/20 03:02:37;;;;;;;9.52;4.97;;;10.30;91.40;;;;;;5068091;28;20032;-71
2021/04/20 03:05:06;;;;;;;16.92;4.93;;;10.30;91.50;;;;;;5074255;28;20032;-71
2021/04/20 03:07:50;;;;;;;10.73;5.03;;;10.20;91.50;;;;;;5071465;28;20065;-70
2021/04/20 03:10:18;;;;;;;12.93;4.60;;;10.20;91.50;;;;;;5072299;28;20346;-71
2021/04/20 03:12:45;;;;;;;12.30;5.25;;;10.20;91.60;;;;;;5072450;28;20031;-71
2021/04/20 03:15:14;;;;;;;10.05;5.78;;;10.10;91.70;;;;;;5073057;28;20020;-71
2021/04/20 03:17:41;;;;;;;13.85;5.82;;;10.10;92.00;;;;;;5059528;28;20025;-71
2021/04/20 03:20:09;;;;;;;12.68;5.43;;;10.00;92.00;;;;;;5075990;28;20117;-70
2021/04/20 03:22:35;;;;;;;9.93;5.35;;;9.90;92.20;;;;;;5071763;28;20024;-71
2021/04/20 03:25:07;;;;;;;8.55;5.25;;;9.90;92.20;;;;;;5073431;28;20032;-70
2021/04/20 03:27:33;;;;;;;14.18;5.05;;;9.90;92.30;;;;;;5076587;28;20024;-70
2021/04/20 03:29:59;;;;;;;10.18;5.40;;;9.80;92.40;;;;;;5055342;28;20056;-71
2021/04/20 03:32:26;;;;;;;9.45;4.70;;;9.80;92.30;;;;;;5058099;28;20060;-70
2021/04/20 03:34:59;;;;;;;11.82;4.85;;;9.90;92.50;;;;;;5060431;28;20028;-70
2021/04/20 03:37:34;;;;;;;11.77;5.60;;;9.80;92.50;;;;;;5073027;28;20085;-69
2021/04/20 03:40:04;;;;;;;10.45;5.32;;;9.70;92.70;;;;;;5075263;28;20033;-71
2021/04/20 03:42:34;;;;;;;11.80;4.93;;;9.70;92.80;;;;;;5092769;28;20028;-71
2021/04/20 03:45:10;;;;;;;13.00;5.30;;;9.60;92.80;;;;;;5074239;28;20040;-72
2021/04/20 03:47:41;;;;;;;11.20;5.28;;;9.70;92.80;;;;;;5053727;28;20029;-72
2021/04/20 03:50:12;;;;;;;10.88;5.35;;;9.60;93.00;;;;;;5064157;28;20075;-72
2021/04/20 03:52:50;;;;;;;10.82;5.40;;;9.60;93.00;;;;;;5053951;28;20333;-72
2021/04/20 03:55:18;;;;;;;11.60;6.00;;;9.60;93.00;;;;;;5072634;28;20071;-72
2021/04/20 03:57:45;;;;;;;14.30;6.20;;;9.60;93.00;;;;;;5055594;28;20029;-70
2021/04/20 04:00:14;;;;;;;11.70;5.60;;;9.50;93.00;;;;;;5070528;28;20056;-71
2021/04/20 04:02:43;;;;;;;12.88;5.18;;;9.50;93.10;;;;;;5072670;28;20025;-72
2021/04/20 04:05:14;;;;;;;10.57;5.38;;;9.50;93.10;;;;;;5072019;28;20040;-71
2021/04/20 04:07:40;;;;;;;13.73;6.00;;;9.50;93.10;;;;;;5087638;28;20373;-71
2021/04/20 04:10:07;;;;;;;12.05;6.00;;;9.50;93.10;;;;;;5065517;28;20035;-71
2021/04/20 04:12:38;;;;;;;17.45;6.13;;;9.50;93.20;;;;;;5074904;28;20021;-70
2021/04/20 04:15:05;;;;;;;14.20;6.20;;;9.50;93.30;;;;;;5052893;28;20117;-70
2021/04/20 04:17:32;;;;;;;13.52;6.22;;;9.50;93.20;;;;;;5071108;28;20078;-70
2021/04/20 04:20:02;;;;;;;11.57;5.80;;;9.40;93.10;;;;;;5082201;28;20108;-70
2021/04/20 04:22:31;;;;;;;16.10;6.72;;;9.40;93.20;;;;;;5070435;28;20032;-71
2021/04/20 04:24:59;;;;;;;11.25;6.63;;;9.30;93.20;;;;;;5053119;28;20494;-71
2021/04/20 04:27:30;;;;;;;12.45;5.78;;;9.40;93.30;;;;;;5071778;28;20086;-71
2021/04/20 04:30:00;;;;;;;14.70;6.28;;;9.30;93.30;;;;;;5071339;28;20464;-71
2021/04/20 04:32:26;;;;;;;11.02;5.28;;;9.30;93.30;;;;;;5072252;28;20028;-71
2021/04/20 04:34:54;;;;;;;13.63;6.05;;;9.30;93.50;;;;;;5054248;28;20128;-71
2021/04/20 04:37:20;;;;;;;14.15;6.47;;;9.30;93.50;;;;;;5070483;28;20051;-71
2021/04/20 04:39:46;;;;;;;18.20;6.45;;;9.30;93.50;;;;;;5072541;28;20037;-71
2021/04/20 04:42:12;;;;;;;14.95;6.70;;;9.30;93.50;;;;;;5088058;28;20024;-71
2021/04/20 04:44:38;;;;;;;17.80;6.60;;;9.30;93.30;;;;;;5074569;28;20082;-73
2021/04/20 04:47:08;;;;;;;15.95;6.60;;;9.30;93.30;;;;;;5073894;28;20020;-71
2021/04/20 04:49:36;;;;;;;14.05;6.20;;;9.30;93.30;;;;;;5053404;28;20048;-69
2021/04/20 04:52:02;;;;;;;15.82;5.57;;;9.20;93.20;;;;;;5071100;28;20028;-70
2021/04/20 04:54:29;;;;;;;11.57;5.88;;;9.20;93.20;;;;;;5072112;28;20025;-70
2021/04/20 04:56:55;;;;;;;11.32;5.75;;;9.20;93.30;;;;;;5069650;28;20101;-73
2021/04/20 04:59:22;;;;;;;14.65;6.20;;;9.10;93.30;;;;;;5054306;28;20565;-73
2021/04/20 05:01:48;;;;;;;14.52;6.05;;;9.10;93.30;;;;;;5074058;28;20024;-69
2021/04/20 05:04:14;;;;;;;14.05;5.97;;;9.20;93.30;;;;;;5070856;28;20498;-70
2021/04/20 05:06:58;;;;;;;12.52;6.68;;;9.10;93.20;;;;;;5049830;28;20043;-70
2021/04/20 05:09:24;;;;;;;12.13;6.75;;;9.10;93.20;;;;;;5066762;28;20388;-72
2021/04/20 05:11:51;;;;;;;15.00;7.38;;;9.10;93.20;;;;;;5054204;28;20028;-71
2021/04/20 05:14:19;;;;;;;15.23;6.80;;;9.10;93.20;;;;;;5034532;28;20075;-71
2021/04/20 05:16:49;;;;;;;10.82;6.18;;;9.10;93.20;;;;;;5081596;28;20070;-71
2021/04/20 05:19:30;;;;;;;11.93;5.93;;;9.10;93.20;;;;;;5092606;28;20032;-72
2021/04/20 05:21:56;;;;;;;16.42;6.18;;;9.10;93.20;;;;;;5086460;28;20119;-71
2021/04/20 05:24:22;;;;;;;13.10;6.47;;;9.10;93.20;;;;;;5074277;28;20379;-72
2021/04/20 05:26:48;;;;;;;15.10;6.30;;;9.10;93.20;;;;;;5073325;28;20389;-72
2021/04/20 05:29:14;;;;;;;12.95;6.05;;;9.10;93.20;;;;;;5071311;28;20024;-70
2021/04/20 05:31:40;;;;;;;13.90;6.40;;;9.10;93.20;;;;;;5069952;28;20036;-71
2021/04/20 05:34:06;;;;;;;12.13;5.65;;;9.10;93.20;;;;;;5053055;28;20020;-71
2021/04/20 05:36:33;;;;;;;12.85;6.40;;;9.10;93.20;;;;;;5051517;28;20032;-71
2021/04/20 05:39:03;;;;;;;16.10;6.10;;;9.10;93.20;;;;;;5069855;28;20020;-71
2021/04/20 05:41:30;;;;;;;11.82;5.97;;;9.10;93.20;;;;;;5064934;28;20492;-71
2021/04/20 05:43:57;;;;;;;11.35;5.93;;;9.20;93.20;;;;;;5070605;28;20025;-70
2021/04/20 05:46:24;;;;;;;13.73;7.05;;;9.20;93.20;;;;;;5058258;28;20063;-68
2021/04/20 05:48:51;;;;;;;12.85;5.97;;;9.20;93.10;;;;;;5087003;28;20036;-68
2021/04/20 05:51:19;;;;;;;13.77;7.22;;;9.30;93.20;;;;;;5079116;28;20089;-70
2021/04/20 05:53:45;;;;;;;13.85;7.05;;;9.30;93.10;;;;;;5072164;28;20111;-71
2021/04/20 05:56:11;;;;;;;13.35;6.85;;;9.30;93.00;;;;;;5055484;28;20059;-69
2021/04/20 05:58:37;;;;;;;12.60;6.35;;;9.30;93.00;;;;;;5053125;28;20080;-70
2021/04/20 06:01:03;;;;;;;12.50;6.32;;;9.40;93.00;;;;;;5072051;28;20483;-70
2021/04/20 06:03:31;;;;;;;13.95;6.60;;;9.40;92.90;;;;;;5091248;28;20093;-70
2021/04/20 06:05:59;;;;;;;18.23;7.38;;;9.40;92.90;;;;;;5083542;28;20063;-70
2021/04/20 06:08:25;;;;;;;14.07;7.50;;;9.40;92.90;;;;;;5091814;28;20020;-70
2021/04/20 06:10:52;;;;;;;16.45;7.72;;;9.40;92.90;;;;;;5068677;28;20024;-70
2021/04/20 06:13:17;;;;;;;13.65;7.03;;;9.50;92.80;;;;;;5071744;28;20466;-70
2021/04/20 06:15:43;;;;;;;14.98;7.25;;;9.50;92.80;;;;;;5074058;28;20039;-69
2021/04/20 06:18:10;;;;;;;13.15;6.95;;;9.60;92.70;;;;;;5091971;28;20045;-69
2021/04/20 06:20:36;;;;;;;16.90;7.03;;;9.60;92.60;;;;;;5078313;28;20032;-70
2021/04/20 06:23:04;;;;;;;12.35;6.43;;;9.70;92.60;;;;;;5091499;28;20023;-69
2021/04/20 06:25:31;;;;;;;18.23;7.97;;;9.70;92.60;;;;;;5076671;28;20028;-69
2021/04/20 06:27:57;;;;;;;15.23;6.72;;;9.80;92.50;;;;;;5071599;28;20029;-70
2021/04/20 06:30:23;;;;;;;15.48;6.60;;;9.80;92.30;;;;;;5067666;28;20032;-69
2021/04/20 06:32:49;;;;;;;17.90;7.20;;;9.90;92.70;;;;;;5071015;28;20039;-70
2021/04/20 06:35:17;;;;;;;13.18;6.80;;;10.00;92.40;;;;;;5071821;28;20032;-69
2021/04/20 06:37:46;;;;;;;13.40;6.53;;;10.00;92.20;;;;;;5094655;28;20047;-69
2021/04/20 06:40:20;;;;;;;12.90;6.55;;;10.10;92.30;;;;;;5089574;28;20036;-71
2021/04/20 06:42:52;;;;;;;14.85;6.72;;;10.20;92.10;;;;;;5067051;28;20501;-71
2021/04/20 06:45:32;;;;;;;13.82;6.50;;;10.30;92.10;;;;;;5070602;28;20036;-69
2021/04/20 06:48:18;;;;;;;15.57;7.15;;;10.30;91.90;;;;;;5063208;28;20036;-70
2021/04/20 06:50:46;;;;;;;16.05;6.90;;;10.40;91.70;;;;;;5073851;28;20082;-71
2021/04/20 06:53:19;;;;;;;17.15;7.47;;;10.50;91.70;;;;;;5074404;28;20032;-70
2021/04/20 06:55:57;;;;;;;11.32;7.20;;;10.60;91.70;;;;;;5081904;28;20032;-71
2021/04/20 06:58:33;;;;;;;16.23;7.00;;;10.60;91.60;;;;;;5091519;28;20021;-71
2021/04/20 07:01:02;;;;;;;12.27;7.38;;;10.80;91.50;;;;;;5072590;28;20113;-71
2021/04/20 07:03:51;;;;;;;13.18;7.25;;;10.80;91.30;;;;;;5055070;28;20037;-71
2021/04/20 07:06:22;;;;;;;19.58;7.50;;;10.90;91.30;;;;;;5072284;28;20020;-71
2021/04/20 07:09:00;;;;;;;18.13;8.98;;;11.10;91.10;;;;;;5073304;28;20028;-71
2021/04/20 07:11:32;;;;;;;14.02;7.38;;;11.10;91.00;;;;;;5052093;28;20033;-71
2021/04/20 07:14:01;;;;;;;22.20;8.23;;;11.30;90.80;;;;;;5063395;28;20108;-71
2021/04/20 07:16:32;;;;;;;21.00;8.48;;;11.30;90.60;;;;;;5056817;28;20031;-71
2021/04/20 07:19:02;;;;;;;17.70;8.27;;;11.40;90.40;;;;;;5073859;28;20021;-71
2021/04/20 07:21:52;;;;;;;16.35;8.10;;;11.40;90.50;;;;;;5072995;28;20121;-71
2021/04/20 07:24:38;;;;;;;16.90;8.27;;;11.60;90.30;;;;;;5056519;28;20027;-71
2021/04/20 07:27:06;;;;;;;22.33;8.15;;;11.60;90.10;;;;;;5073004;28;20060;-71
2021/04/20 07:30:04;;;;;;;19.75;8.20;;;11.70;90.00;;;;;;5074259;28;20028;-71
2021/04/20 07:32:59;;;;;;;18.35;8.15;;;11.80;90.00;;;;;;5061934;28;20594;-71
2021/04/20 07:35:47;;;;;;;20.50;7.50;;;11.90;89.10;;;;;;5088079;28;20047;-71
2021/04/20 07:38:23;;;;;;;15.45;8.20;;;11.90;88.80;;;;;;5080419;28;20025;-71
2021/04/20 07:41:25;;;;;;;17.95;8.57;;;12.00;88.40;;;;;;5072430;28;20044;-71
2021/04/20 07:44:26;;;;;;;15.27;8.38;;;12.10;88.50;;;;;;5074063;28;20031;-70
2021/04/20 07:46:56;;;;;;;15.43;7.18;;;12.20;87.90;;;;;;5067548;28;20036;-71
2021/04/20 07:49:45;;;;;;;13.60;7.63;;;12.30;88.00;;;;;;5084990;28;20094;-71
2021/04/20 07:52:27;;;;;;;16.10;8.02;;;12.40;87.70;;;;;;5055469;28;20107;-71
2021/04/20 07:55:17;;;;;;;15.00;7.93;;;12.50;87.60;;;;;;5072838;28;20036;-71
2021/04/20 07:57:51;;;;;;;15.00;8.40;;;12.70;87.10;;;;;;5035393;28;20036;-71
2021/04/20 08:00:27;;;;;;;14.30;7.95;;;12.70;86.80;;;;;;5054345;28;20064;-71
2021/04/20 08:03:05;;;;;;;16.98;8.25;;;12.90;86.50;;;;;;5082157;28;20496;-72
2021/04/20 08:05:38;;;;;;;17.50;8.82;;;13.00;86.10;;;;;;5068845;28;20036;-72
2021/04/20 08:08:13;;;;;;;15.48;8.38;;;13.00;85.30;;;;;;5073431;28;20028;-70
2021/04/20 08:10:53;;;;;;;15.65;7.65;;;13.00;84.60;;;;;;5086430;28;20118;-72
2021/04/20 08:13:39;;;;;;;16.33;7.35;;;13.20;84.80;;;;;;5093542;28;20036;-70
2021/04/20 08:16:18;;;;;;;14.70;7.47;;;13.30;84.30;;;;;;5090468;28;20092;-71
2021/04/20 08:19:09;;;;;;;13.43;7.40;;;13.30;84.10;;;;;;5076177;28;20032;-71
2021/04/20 08:21:41;;;;;;;15.50;7.35;;;13.40;83.60;;;;;;5077970;28;20047;-70
2021/04/20 08:24:14;;;;;;;14.75;7.78;;;13.40;83.90;;;;;;5055072;28;20043;-70
2021/04/20 08:26:46;;;;;;;13.95;7.57;;;13.50;83.50;;;;;;5074230;28;20113;-70
2021/04/20 08:29:27;;;;;;;20.15;7.90;;;13.50;82.80;;;;;;5072974;28;20048;-71
2021/04/20 08:32:02;;;;;;;12.13;7.72;;;13.60;82.20;;;;;;5072995;28;20484;-71
2021/04/20 08:34:36;;;;;;;12.57;7.22;;;13.60;82.20;;;;;;5072849;28;20481;-70
2021/04/20 08:37:01;;;;;;;15.05;7.47;;;13.70;81.90;;;;;;5072760;28;20028;-70
2021/04/20 08:39:48;;;;;;;16.35;7.05;;;13.80;81.90;;;;;;5072418;28;20043;-72
2021/04/20 08:42:35;;;;;;;12.98;7.35;;;13.90;81.40;;;;;;5073002;28;20028;-71
2021/04/20 08:45:13;;;;;;;16.67;6.68;;;14.00;80.60;;;;;;5064922;28;20063;-72
2021/04/20 08:47:58;;;;;;;13.73;7.07;;;14.10;81.20;;;;;;5052476;28;20021;-72
2021/04/20 08:50:25;;;;;;;15.13;6.70;;;14.20;80.70;;;;;;5066952;28;20029;-72
2021/04/20 08:53:10;;;;;;;11.48;6.00;;;14.30;80.20;;;;;;5092556;28;20028;-72
2021/04/20 08:56:08;;;;;;;13.75;6.60;;;14.30;80.30;;;;;;5085529;28;20032;-71
2021/04/20 08:59:19;;;;;;;11.02;5.78;;;14.40;79.90;;;;;;5053618;28;20039;-71
2021/04/20 09:02:22;;;;;;;15.68;6.80;;;14.50;79.50;;;;;;5049438;28;20528;-70
2021/04/20 09:05:02;;;;;;;12.05;6.43;;;14.50;76.70;;;;;;5072235;28;20021;-71
2021/04/20 09:07:37;;;;;;;11.75;6.65;;;14.50;75.90;;;;;;5067467;28;20469;-70
2021/04/20 09:10:27;;;;;;;13.10;6.35;;;14.50;75.50;;;;;;5067441;28;20059;-71
2021/04/20 09:12:59;;;;;;;14.85;7.22;;;14.60;76.10;;;;;;5062718;28;20029;-71
2021/04/20 09:15:26;;;;;;;13.05;6.50;;;14.70;75.20;;;;;;5070750;28;20033;-72
2021/04/20 09:17:58;;;;;;;12.80;6.85;;;14.80;74.70;;;;;;5052547;28;20033;-72
2021/04/20 09:20:48;;;;;;;12.60;6.40;;;14.80;74.20;;;;;;5056352;28;20055;-72
2021/04/20 09:23:42;;;;;;;14.10;6.18;;;14.90;74.00;;;;;;5073823;28;20099;-72
2021/04/20 09:26:22;;;;;;;13.07;6.03;;;14.90;74.00;;;;;;5088426;28;20040;-72
2021/04/20 09:29:12;;;;;;;14.68;5.90;;;14.90;73.70;;;;;;5045399;28;20020;-72
2021/04/20 09:31:41;;;;;;;14.75;6.50;;;15.10;73.90;;;;;;5069855;28;20031;-72
2021/04/20 09:34:09;;;;;;;13.48;5.72;;;15.10;73.20;;;;;;5053623;28;20020;-73
2021/04/20 09:36:39;;;;;;;11.00;6.35;;;15.30;73.10;;;;;;5079157;28;20031;-72
2021/04/20 09:39:05;;;;;;;11.45;6.25;;;15.40;73.10;;;;;;5071059;28;20116;-73
2021/04/20 09:41:59;;;;;;;19.50;6.30;;;15.50;71.20;;;;;;5069364;28;20025;-74
2021/04/20 09:44:49;;;;;;;13.27;6.85;;;15.50;66.80;;;;;;5051832;28;20063;-72
2021/04/20 09:47:42;;;;;;;11.13;6.47;;;15.50;68.30;;;;;;5081074;28;20017;-75
2021/04/20 09:50:32;;;;;;;15.93;8.15;;;15.50;69.30;;;;;;5051405;28;20049;-75
2021/04/20 09:53:19;;;;;;;13.20;7.05;;;15.60;68.90;;;;;;5071536;28;20091;-75
2021/04/20 09:56:06;;;;;;;13.50;7.30;;;15.70;68.20;;;;;;5072150;28;20035;-74
2021/04/20 09:58:34;;;;;;;13.13;7.60;;;15.70;66.60;;;;;;5071283;28;20036;-74
2021/04/20 10:01:12;;;;;;;10.07;6.30;;;15.80;67.10;;;;;;5067514;28;20119;-72
2021/04/20 10:03:57;;;;;;;9.55;6.20;;;15.80;67.30;;;;;;5068901;28;20051;-73
2021/04/20 10:07:17;;;;;;;17.80;6.65;;;15.90;67.80;;;;;;5074189;28;20119;-73
2021/04/20 10:09:46;;;;;;;14.20;7.50;;;16.10;66.20;;;;;;5028262;28;20056;-72
2021/04/20 10:12:56;;;;;;;13.38;7.65;;;16.20;66.20;;;;;;5071997;28;20041;-72
2021/04/20 10:15:27;;;;;;;13.48;6.80;;;16.30;66.40;;;;;;5070211;28;20020;-72
2021/04/20 10:18:21;;;;;;;10.65;5.80;;;16.40;65.70;;;;;;5050070;28;20496;-72
2021/04/20 10:21:14;;;;;;;14.65;6.38;;;16.50;64.70;;;;;;5065536;28;20416;-72
2021/04/20 10:23:50;;;;;;;12.82;6.30;;;16.60;63.90;;;;;;5071146;28;20020;-72
2021/04/20 10:26:37;;;;;;;11.10;5.68;;;16.70;63.20;;;;;;5069543;28;20020;-72
2021/04/20 10:29:24;;;;;;;10.82;7.40;;;16.80;62.80;;;;;;5070657;28;20402;-72
2021/04/20 10:32:01;;;;;;;12.98;6.95;;;16.80;61.30;;;;;;5041655;28;20029;-72
2021/04/20 10:34:27;;;;;;;10.00;6.90;;;16.90;61.20;;;;;;5050898;28;20103;-73
2021/04/20 10:36:56;;;;;;;11.68;7.00;;;16.90;61.10;;;;;;5066955;28;20060;-72
2021/04/20 10:39:24;;;;;;;14.20;7.68;;;16.90;60.50;;;;;;5070533;28;20508;-69
2021/04/20 10:41:51;;;;;;;11.88;7.20;;;17.00;59.90;;;;;;5068507;28;20120;-71
2021/04/20 10:44:19;;;;;;;10.30;7.05;;;17.00;60.40;;;;;;5053025;28;20027;-72
2021/04/20 10:46:50;;;;;;;12.25;6.63;;;17.10;60.50;;;;;;5070105;28;20051;-72
2021/04/20 10:49:17;;;;;;;13.10;7.40;;;17.20;60.40;;;;;;5075467;28;20035;-72
2021/04/20 10:51:44;;;;;;;16.13;7.53;;;17.20;59.60;;;;;;5081332;28;20024;-72
2021/04/20 10:54:11;;;;;;;12.38;7.18;;;17.20;59.40;;;;;;5072647;28;20487;-74
2021/04/20 10:56:46;;;;;;;10.32;6.95;;;17.20;59.20;;;;;;5057915;28;20508;-71
2021/04/20 10:59:24;;;;;;;10.57;6.97;;;17.20;59.40;;;;;;5062995;28;20064;-71
2021/04/20 11:01:49;;;;;;;14.35;7.03;;;17.30;59.20;;;;;;5050845;28;20032;-71
2021/04/20 11:04:20;;;;;;;11.52;7.20;;;17.30;59.10;;;;;;5066908;28;20085;-71
2021/04/20 11:07:21;;;;;;;13.05;6.85;;;17.30;58.90;;;;;;5055806;28;20022;-70
2021/04/20 11:09:55;;;;;;;12.57;7.47;;;17.30;59.50;;;;;;5065260;28;20029;-71
2021/04/20 11:12:22;;;;;;;13.52;7.32;;;17.50;59.60;;;;;;5068996;28;20463;-70
2021/04/20 11:14:51;;;;;;;13.68;7.07;;;17.60;59.90;;;;;;5052877;28;20055;-70
2021/04/20 11:17:32;;;;;;;15.30;8.02;;;17.70;59.00;;;;;;5068649;28;20032;-70
2021/04/20 11:20:04;;;;;;;14.80;8.18;;;17.60;58.10;;;;;;5069479;28;20453;-70
2021/04/20 11:22:37;;;;;;;13.90;7.45;;;17.60;57.30;;;;;;5068761;28;20031;-69
2021/04/20 11:25:08;;;;;;;14.07;8.63;;;17.50;57.00;;;;;;5068463;28;20362;-70
2021/04/20 11:27:36;;;;;;;12.35;7.57;;;17.40;56.80;;;;;;5074089;28;20104;-70
2021/04/20 11:30:32;;;;;;;17.75;7.47;;;17.40;56.80;;;;;;5073061;28;20069;-69
2021/04/20 11:33:24;;;;;;;13.82;6.82;;;17.50;58.10;;;;;;5059072;28;20033;-70
2021/04/20 11:36:20;;;;;;;11.48;6.80;;;17.60;58.80;;;;;;5069923;28;20431;-70
2021/04/20 11:38:56;;;;;;;12.18;8.65;;;17.70;58.80;;;;;;5060889;28;20381;-70
2021/04/20 11:41:28;;;;;;;17.73;8.18;;;17.80;57.50;;;;;;5077039;28;20040;-70
2021/04/20 11:44:03;;;;;;;14.57;7.38;;;17.80;58.30;;;;;;5073769;28;20138;-70
2021/04/20 11:46:32;;;;;;;13.25;7.65;;;17.90;58.10;;;;;;5079557;28;20549;-70
2021/04/20 11:49:10;;;;;;;12.32;7.65;;;18.00;56.90;;;;;;5093724;28;20028;-70
2021/04/20 11:51:39;;;;;;;11.85;7.05;;;18.00;56.30;;;;;;5071788;28;20552;-70
2021/04/20 11:54:05;;;;;;;17.00;7.95;;;18.00;56.00;;;;;;5080594;28;20033;-70
2021/04/20 11:56:40;;;;;;;15.50;7.97;;;18.00;56.10;;;;;;5071938;28;20032;-71
2021/04/20 11:59:06;;;;;;;11.02;7.07;;;18.00;55.70;;;;;;5090847;28;20052;-70
2021/04/20 12:01:34;;;;;;;11.85;7.07;;;18.10;56.30;;;;;;5071900;28;20036;-71
2021/04/20 12:04:06;;;;;;;15.57;7.57;;;18.20;56.30;;;;;;5073597;28;20043;-70
2021/04/20 12:06:45;;;;;;;12.40;7.28;;;18.20;55.80;;;;;;5083028;28;20074;-70
2021/04/20 12:09:15;;;;;;;12.05;7.65;;;18.30;55.90;;;;;;5086405;28;20074;-70
2021/04/20 12:11:41;;;;;;;13.88;7.30;;;18.40;56.00;;;;;;5078634;28;20032;-70
2021/04/20 12:14:09;;;;;;;11.98;6.97;;;18.50;56.20;;;;;;5089957;28;20021;-70
2021/04/20 12:16:36;;;;;;;12.27;7.35;;;18.60;55.00;;;;;;5049477;28;20383;-70
2021/04/20 12:19:07;;;;;;;12.52;6.80;;;18.60;53.80;;;;;;5051750;28;20020;-73
2021/04/20 12:21:38;;;;;;;14.15;6.78;;;18.60;54.30;;;;;;5071848;28;20421;-72
2021/04/20 12:24:06;;;;;;;11.20;6.07;;;18.70;55.30;;;;;;5070057;28;20039;-72
2021/04/20 12:26:33;;;;;;;12.75;7.03;;;18.80;55.50;;;;;;5070606;28;20036;-72
2021/04/20 12:29:03;;;;;;;10.65;6.57;;;18.90;54.80;;;;;;5074481;28;20025;-72
2021/04/20 12:31:37;;;;;;;10.85;7.10;;;19.00;53.80;;;;;;5071207;28;20037;-72
2021/04/20 12:34:04;;;;;;;14.15;7.20;;;19.10;53.90;;;;;;5055105;28;20025;-72
2021/04/20 12:36:47;;;;;;;13.95;7.63;;;19.20;53.90;;;;;;5082853;28;20056;-72
2021/04/20 12:39:23;;;;;;;10.60;6.32;;;19.40;53.60;;;;;;5090598;28;20031;-72
2021/04/20 12:41:51;;;;;;;11.55;6.88;;;19.40;53.20;;;;;;5083358;28;20122;-72
2021/04/20 12:44:21;;;;;;;12.10;6.68;;;19.50;52.40;;;;;;5071009;28;20104;-72
2021/04/20 12:46:46;;;;;;;10.95;6.97;;;19.50;52.50;;;;;;5082172;28;20085;-72
2021/04/20 12:49:14;;;;;;;14.05;6.55;;;19.60;52.40;;;;;;5073584;28;20399;-72
2021/04/20 12:51:41;;;;;;;10.00;6.90;;;19.70;51.40;;;;;;5084237;28;20031;-72
2021/04/20 12:54:17;;;;;;;11.07;6.88;;;19.70;52.10;;;;;;5072097;28;20115;-72
2021/04/20 12:56:44;;;;;;;10.35;6.53;;;19.80;52.50;;;;;;5076503;28;20028;-73
2021/04/20 12:59:21;;;;;;;12.07;6.72;;;19.90;51.80;;;;;;5069650;28;20064;-73
2021/04/20 13:01:52;;;;;;;10.13;6.72;;;20.00;51.10;;;;;;5062409;28;20067;-72
2021/04/20 13:04:29;;;;;;;12.13;6.03;;;20.00;50.70;;;;;;5086359;28;20562;-72
2021/04/20 13:06:56;;;;;;;11.80;5.53;;;20.00;51.50;;;;;;5074857;28;20033;-72